createdAt,value
2018-08-20T00:01:23.186Z,69.88
2018-08-20T00:03:52.929Z,69.05
2018-08-20T00:06:25.137Z,69.31
2018-08-20T00:08:54.546Z,69.55
2018-08-20T00:11:24.017Z,69.63
2018-08-20T00:13:56.460Z,69.72
2018-08-20T00:16:27.544Z,68.96
2018-08-20T00:18:57.923Z,69.51
2018-08-20T00:21:27.296Z,69.28
2018-08-20T00:23:58.252Z,69.50
2018-08-20T00:26:28.673Z,69.35
2018-08-20T00:28:58.672Z,69.04
2018-08-20T00:31:28.093Z,70.49
2018-08-20T00:33:57.474Z,70.22
2018-08-20T00:36:26.934Z,70.22
2018-08-20T00:38:57.770Z,69.51
2018-08-20T00:41:27.165Z,70.51
2018-08-20T00:43:56.888Z,69.66
2018-08-20T00:46:26.311Z,69.96
2018-08-20T00:50:00.945Z,70.67
2018-08-20T00:52:30.356Z,69.45
2018-08-20T00:55:00.679Z,68.49
2018-08-20T00:57:30.105Z,69.42
2018-08-20T01:00:00.087Z,69.19
2018-08-20T01:02:31.376Z,70.13
2018-08-20T01:05:03.802Z,70.82
2018-08-20T01:07:34.127Z,70.37
2018-08-20T01:10:03.804Z,71.42
2018-08-20T01:12:33.628Z,70.95
2018-08-20T01:15:03.030Z,69.90
2018-08-20T01:17:32.432Z,70.92
2018-08-20T01:20:02.297Z,70.56
2018-08-20T01:22:31.775Z,70.28
2018-08-20T01:25:01.573Z,71.28
2018-08-20T01:27:31.181Z,71.13
2018-08-20T01:30:00.643Z,71.67
2018-08-20T01:32:30.122Z,71.44
2018-08-20T01:35:14.648Z,71.56
2018-08-20T01:37:45.347Z,71.25
2018-08-20T01:40:14.821Z,72.06
2018-08-20T01:42:44.725Z,71.33
2018-08-20T01:45:14.158Z,71.30
2018-08-20T01:47:43.578Z,71.38
2018-08-20T01:50:13.439Z,71.85
2018-08-20T01:52:42.921Z,71.01
2018-08-20T01:55:12.324Z,72.03
2018-08-20T01:57:41.803Z,71.56
2018-08-20T02:00:11.634Z,71.69
2018-08-20T02:02:41.064Z,71.03
2018-08-20T02:05:10.622Z,70.59
2018-08-20T02:07:40.006Z,71.29
2018-08-20T02:10:09.963Z,71.77
2018-08-20T02:12:40.891Z,71.57
2018-08-20T02:15:10.403Z,71.11
2018-08-20T02:17:39.784Z,70.12
2018-08-20T02:20:09.647Z,70.76
2018-08-20T02:22:39.047Z,71.26
2018-08-20T02:25:08.868Z,71.04
2018-08-20T02:27:38.287Z,70.90
2018-08-20T02:30:08.065Z,71.63
2018-08-20T02:32:37.851Z,71.75
2018-08-20T02:35:08.130Z,71.99
2018-08-20T02:37:42.678Z,71.55
2018-08-20T02:40:12.352Z,72.35
2018-08-20T02:42:42.137Z,71.42
2018-08-20T02:45:17.691Z,71.45
2018-08-20T02:47:47.510Z,71.24
2018-08-20T02:50:17.523Z,71.88
2018-08-20T02:52:46.978Z,72.04
2018-08-20T02:55:16.469Z,72.13
2018-08-20T02:57:46.754Z,71.74
2018-08-20T03:00:16.471Z,72.94
2018-08-20T03:02:46.013Z,72.91
2018-08-20T03:05:15.791Z,73.46
2018-08-20T03:07:45.203Z,73.29
2018-08-20T03:10:14.712Z,72.86
2018-08-20T03:12:44.133Z,72.12
2018-08-20T03:15:13.986Z,72.00
2018-08-20T03:17:43.448Z,72.54
2018-08-20T03:20:12.917Z,72.61
2018-08-20T03:22:42.363Z,73.42
2018-08-20T03:25:12.339Z,72.52
2018-08-20T03:27:41.779Z,72.32
2018-08-20T03:30:11.719Z,72.21
2018-08-20T03:32:41.990Z,73.83
2018-08-20T03:35:12.598Z,72.95
2018-08-20T03:37:42.073Z,72.72
2018-08-20T03:40:13.103Z,73.31
2018-08-20T03:42:42.967Z,73.61
2018-08-20T03:45:12.649Z,73.91
2018-08-20T03:47:42.458Z,73.06
2018-08-20T03:50:14.739Z,73.62
2018-08-20T03:52:44.107Z,73.38
2018-08-20T03:55:13.505Z,73.30
2018-08-20T03:57:43.287Z,72.99
2018-08-20T04:00:13.289Z,73.62
2018-08-20T04:02:42.761Z,73.98
2018-08-20T04:05:12.223Z,74.15
2018-08-20T04:07:41.808Z,73.85
2018-08-20T04:10:11.590Z,74.03
2018-08-20T04:12:40.954Z,74.37
2018-08-20T04:15:10.405Z,73.96
2018-08-20T04:17:39.867Z,73.99
2018-08-20T04:20:10.768Z,74.93
2018-08-20T04:22:41.934Z,73.79
2018-08-20T04:25:12.395Z,74.72
2018-08-20T04:27:46.803Z,74.79
2018-08-20T04:30:16.237Z,74.57
2018-08-20T04:32:47.361Z,74.90
2018-08-20T04:35:16.851Z,73.43
2018-08-20T04:37:50.212Z,74.49
2018-08-20T04:40:19.626Z,73.72
2018-08-20T04:42:49.311Z,74.35
2018-08-20T04:45:18.798Z,74.54
2018-08-20T04:47:48.262Z,73.59
2018-08-20T04:50:17.918Z,73.04
2018-08-20T04:52:48.166Z,73.58
2018-08-20T04:55:17.600Z,73.99
2018-08-20T04:57:46.947Z,74.20
2018-08-20T05:00:16.707Z,72.92
2018-08-20T05:02:46.154Z,73.80
2018-08-20T05:05:15.507Z,74.40
2018-08-20T05:11:21.546Z,73.83
2018-08-20T05:13:50.953Z,73.18
2018-08-20T05:16:21.759Z,73.80
2018-08-20T05:18:51.268Z,73.11
2018-08-20T05:21:21.495Z,72.88
2018-08-20T05:23:50.973Z,73.62
2018-08-20T05:26:21.505Z,72.94
2018-08-20T05:28:51.750Z,72.90
2018-08-20T05:31:21.697Z,73.69
2018-08-20T05:33:51.092Z,72.73
2018-08-20T05:36:20.450Z,72.85
2018-08-20T05:38:50.155Z,72.20
2018-08-20T05:41:20.562Z,71.83
2018-08-20T05:43:50.188Z,71.59
2018-08-20T05:46:20.181Z,70.90
2018-08-20T05:48:49.537Z,70.30
2018-08-20T05:51:21.825Z,70.21
2018-08-20T05:53:58.390Z,69.99
2018-08-20T05:56:28.436Z,69.10
2018-08-20T05:58:59.568Z,70.23
2018-08-20T06:01:30.708Z,70.80
2018-08-20T06:04:02.886Z,71.12
2018-08-20T06:06:32.341Z,69.97
2018-08-20T06:09:03.267Z,68.46
2018-08-20T06:11:32.743Z,67.26
2018-08-20T06:14:02.565Z,67.24
2018-08-20T06:16:32.058Z,65.25
2018-08-20T06:19:01.471Z,59.25
2018-08-20T06:21:31.007Z,61.01
2018-08-20T06:24:00.666Z,60.26
2018-08-20T06:26:30.091Z,57.32
2018-08-20T06:29:04.698Z,56.86
2018-08-20T06:31:34.130Z,55.21
2018-08-20T06:34:03.514Z,54.67
2018-08-20T06:36:34.656Z,55.91
2018-08-20T06:39:05.321Z,54.02
2018-08-20T06:41:34.811Z,54.15
2018-08-20T06:44:05.504Z,53.17
2018-08-20T06:46:35.568Z,54.47
2018-08-20T06:49:06.986Z,52.75
2018-08-20T06:51:37.422Z,52.08
2018-08-20T06:54:08.183Z,51.88
2018-08-20T06:56:37.578Z,52.58
2018-08-20T06:59:07.291Z,53.37
2018-08-20T07:01:39.851Z,52.42
2018-08-20T07:04:09.443Z,51.57
2018-08-20T07:06:39.816Z,52.99
2018-08-20T07:09:09.194Z,52.51
2018-08-20T07:11:38.952Z,53.33
2018-08-20T07:14:09.559Z,51.90
2018-08-20T07:16:41.405Z,51.88
2018-08-20T07:19:10.807Z,51.59
2018-08-20T07:21:40.642Z,51.34
2018-08-20T07:24:11.588Z,52.80
2018-08-20T07:26:41.011Z,51.46
2018-08-20T07:29:11.059Z,50.40
2018-08-20T07:31:41.994Z,50.84
2018-08-20T07:34:11.757Z,51.61
2018-08-20T07:36:47.044Z,51.79
2018-08-20T07:39:16.559Z,50.88
2018-08-20T07:41:47.317Z,51.66
2018-08-20T07:44:16.735Z,50.78
2018-08-20T07:46:46.162Z,50.35
2018-08-20T07:49:20.577Z,50.75
2018-08-20T07:51:51.685Z,50.90
2018-08-20T07:54:23.070Z,51.37
2018-08-20T07:56:53.688Z,51.26
2018-08-20T07:59:23.508Z,51.43
2018-08-20T08:01:57.574Z,51.05
2018-08-20T08:04:28.414Z,52.21
2018-08-20T08:06:58.769Z,52.43
2018-08-20T08:09:28.385Z,51.40
2018-08-20T08:11:58.399Z,52.63
2018-08-20T08:14:28.363Z,52.21
2018-08-20T08:18:00.892Z,52.34
2018-08-20T08:20:30.945Z,52.36
2018-08-20T08:23:01.672Z,51.21
2018-08-20T08:25:32.716Z,52.59
2018-08-20T08:28:02.173Z,52.82
2018-08-20T08:30:31.581Z,52.11
2018-08-20T08:33:01.413Z,52.22
2018-08-20T08:39:27.856Z,51.44
2018-08-20T08:41:58.157Z,53.20
2018-08-20T08:44:27.534Z,51.91
2018-08-20T08:46:56.952Z,52.98
2018-08-20T08:49:27.292Z,52.66
2018-08-20T08:51:57.002Z,51.68
2018-08-20T08:54:26.432Z,52.33
2018-08-20T08:56:56.471Z,52.93
2018-08-20T08:59:29.879Z,52.60
2018-08-20T09:01:59.554Z,53.59
2018-08-20T09:04:29.599Z,52.42
2018-08-20T09:07:00.710Z,52.99
2018-08-20T09:09:30.092Z,51.81
2018-08-20T09:12:01.284Z,52.47
2018-08-20T09:14:33.695Z,52.65
2018-08-20T09:17:03.453Z,51.77
2018-08-20T09:19:36.390Z,51.96
2018-08-20T09:22:05.812Z,52.10
2018-08-20T09:24:36.232Z,52.04
2018-08-20T09:27:05.909Z,51.00
2018-08-20T09:29:35.401Z,50.99
2018-08-20T09:32:11.334Z,49.31
2018-08-20T09:34:41.421Z,49.64
2018-08-20T09:37:12.557Z,49.05
2018-08-20T09:39:42.013Z,49.17
2018-08-20T09:42:11.592Z,48.92
2018-08-20T09:44:41.946Z,50.11
2018-08-20T09:47:11.565Z,49.44
2018-08-20T09:49:41.071Z,49.41
2018-08-20T09:52:11.206Z,49.02
2018-08-20T09:54:40.647Z,49.32
2018-08-20T09:57:10.129Z,49.16
2018-08-20T09:59:40.707Z,48.06
2018-08-20T10:02:10.158Z,47.74
2018-08-20T10:04:43.181Z,47.64
2018-08-20T10:07:12.568Z,46.99
2018-08-20T10:09:47.764Z,47.57
2018-08-20T10:12:17.171Z,46.04
2018-08-20T10:14:48.156Z,46.93
2018-08-20T10:17:18.007Z,46.94
2018-08-20T10:19:48.650Z,46.44
2018-08-20T10:22:19.074Z,46.27
2018-08-20T10:24:48.919Z,45.29
2018-08-20T10:27:18.328Z,45.96
2018-08-20T10:29:48.809Z,45.52
2018-08-20T10:32:19.041Z,45.48
2018-08-20T10:34:51.416Z,45.72
2018-08-20T10:37:20.843Z,46.02
2018-08-20T10:39:50.269Z,44.35
2018-08-20T10:42:19.688Z,44.79
2018-08-20T10:44:53.362Z,43.71
2018-08-20T10:47:24.082Z,44.43
2018-08-20T10:49:53.818Z,45.12
2018-08-20T10:52:23.228Z,43.25
2018-08-20T10:54:52.688Z,44.07
2018-08-20T10:57:22.949Z,43.44
2018-08-20T10:59:52.691Z,43.06
2018-08-20T11:02:25.158Z,42.60
2018-08-20T11:04:57.374Z,43.49
2018-08-20T11:07:26.787Z,44.08
2018-08-20T11:09:58.028Z,43.94
2018-08-20T11:12:27.447Z,42.39
2018-08-20T11:15:01.682Z,42.57
2018-08-20T11:17:32.522Z,43.00
2018-08-20T11:20:02.351Z,42.41
2018-08-20T11:22:32.034Z,40.58
2018-08-20T11:25:01.492Z,40.82
2018-08-20T11:27:30.955Z,41.33
2018-08-20T11:30:01.322Z,40.33
2018-08-20T11:32:31.231Z,40.98
2018-08-20T11:35:01.714Z,43.42
2018-08-20T11:37:33.445Z,40.95
2018-08-20T11:40:12.360Z,40.97
2018-08-20T11:42:43.092Z,40.71
2018-08-20T11:45:15.608Z,41.30
2018-08-20T11:53:49.105Z,42.05
2018-08-20T11:56:18.560Z,41.00
2018-08-20T11:58:48.340Z,41.11
2018-08-20T12:01:17.782Z,41.44
2018-08-20T12:03:51.706Z,42.05
2018-08-20T12:06:21.502Z,43.28
2018-08-20T12:08:51.239Z,41.80
2018-08-20T12:11:20.883Z,41.77
2018-08-20T12:13:52.419Z,42.50
2018-08-20T12:16:23.990Z,41.88
2018-08-20T12:18:54.929Z,40.40
2018-08-20T12:21:24.545Z,40.90
2018-08-20T12:23:56.440Z,41.06
2018-08-20T12:26:30.957Z,40.19
2018-08-20T12:29:02.183Z,39.62
2018-08-20T12:31:31.871Z,39.80
2018-08-20T12:34:02.166Z,40.98
2018-08-20T12:36:31.622Z,42.47
2018-08-20T12:39:02.064Z,41.12
2018-08-20T12:41:33.470Z,42.75
2018-08-20T12:44:05.415Z,41.97
2018-08-20T12:46:35.955Z,42.75
2018-08-20T12:49:07.372Z,43.13
2018-08-20T12:51:37.839Z,43.86
2018-08-20T12:54:07.370Z,44.11
2018-08-20T12:56:39.280Z,42.72
2018-08-20T12:59:10.056Z,43.16
2018-08-20T13:01:39.965Z,43.71
2018-08-20T13:04:10.392Z,42.92
2018-08-20T13:06:39.841Z,42.86
2018-08-20T13:09:11.159Z,42.63
2018-08-20T13:11:41.326Z,42.75
2018-08-20T13:14:15.134Z,42.53
2018-08-20T13:16:48.925Z,44.29
2018-08-20T13:19:18.326Z,43.87
2018-08-20T13:21:47.798Z,45.01
2018-08-20T13:24:17.311Z,44.19
2018-08-20T13:26:48.628Z,44.56
2018-08-20T13:29:18.074Z,45.53
2018-08-20T13:31:47.477Z,46.07
2018-08-20T13:34:17.316Z,45.12
2018-08-20T13:36:47.829Z,45.15
2018-08-20T13:39:18.004Z,44.74
2018-08-20T13:41:48.769Z,45.86
2018-08-20T13:44:18.568Z,46.60
2018-08-20T13:46:47.914Z,46.33
2018-08-20T13:49:17.397Z,46.82
2018-08-20T13:51:48.540Z,46.81
2018-08-20T13:54:18.602Z,46.79
2018-08-20T13:56:53.629Z,46.89
2018-08-20T13:59:24.642Z,46.88
2018-08-20T14:01:54.166Z,46.67
2018-08-20T14:04:24.042Z,46.75
2018-08-20T14:06:54.406Z,47.04
2018-08-20T14:09:24.532Z,46.39
2018-08-20T14:11:54.561Z,46.50
2018-08-20T14:14:24.498Z,46.99
2018-08-20T14:16:53.909Z,45.93
2018-08-20T14:19:23.624Z,46.64
2018-08-20T14:21:53.061Z,46.86
2018-08-20T14:24:22.612Z,47.04
2018-08-20T14:26:54.950Z,46.51
2018-08-20T14:29:24.350Z,47.60
2018-08-20T14:31:56.212Z,46.68
2018-08-20T14:34:29.605Z,46.79
2018-08-20T14:36:59.084Z,47.02
2018-08-20T14:39:29.051Z,47.67
2018-08-20T14:41:59.183Z,47.54
2018-08-20T14:44:28.620Z,47.44
2018-08-20T14:46:59.403Z,47.57
2018-08-20T14:49:30.096Z,47.45
2018-08-20T14:51:59.499Z,47.34
2018-08-20T14:54:29.238Z,47.26
2018-08-20T14:57:01.122Z,47.01
2018-08-20T14:59:33.237Z,46.26
2018-08-20T15:02:03.590Z,46.68
2018-08-20T15:04:34.013Z,47.47
2018-08-20T15:07:12.379Z,47.16
2018-08-20T15:09:43.352Z,47.32
2018-08-20T15:12:15.451Z,47.31
2018-08-20T15:14:44.872Z,47.72
2018-08-20T15:17:15.338Z,47.78
2018-08-20T15:19:51.804Z,47.87
2018-08-20T15:22:22.227Z,47.65
2018-08-20T15:24:51.672Z,47.81
2018-08-20T15:27:24.185Z,49.12
2018-08-20T15:30:01.558Z,49.04
2018-08-20T15:32:31.621Z,49.73
2018-08-20T15:35:13.775Z,48.67
2018-08-20T15:37:43.991Z,50.10
2018-08-20T15:40:15.029Z,49.12
2018-08-20T15:42:48.032Z,49.10
2018-08-20T15:45:22.415Z,50.40
2018-08-20T15:47:55.725Z,49.17
2018-08-20T15:50:25.517Z,49.11
2018-08-20T15:52:58.553Z,49.45
2018-08-20T15:55:32.244Z,49.16
2018-08-20T16:03:16.155Z,49.23
2018-08-20T16:05:49.439Z,49.92
2018-08-20T16:08:39.663Z,50.20
2018-08-20T16:11:29.476Z,50.35
2018-08-20T16:14:07.268Z,50.18
2018-08-20T16:17:44.391Z,49.44
2018-08-20T16:20:16.523Z,49.70
2018-08-20T16:22:52.167Z,50.13
2018-08-20T16:25:27.630Z,50.73
2018-08-20T16:27:58.659Z,50.86
2018-08-20T16:30:28.071Z,49.83
2018-08-20T16:32:58.023Z,50.22
2018-08-20T16:35:29.169Z,50.39
2018-08-20T16:38:00.324Z,50.71
2018-08-20T16:40:31.085Z,50.61
2018-08-20T16:45:46.443Z,51.51
2018-08-20T16:48:18.242Z,50.68
2018-08-20T16:50:50.737Z,51.87
2018-08-20T16:53:37.062Z,52.12
2018-08-20T16:56:16.135Z,51.85
2018-08-20T16:59:18.313Z,50.24
2018-08-20T17:01:54.531Z,50.29
2018-08-20T17:04:34.575Z,51.07
2018-08-20T17:07:05.216Z,51.15
2018-08-20T17:09:34.601Z,51.39
2018-08-20T17:12:05.932Z,51.60
2018-08-20T17:14:38.310Z,51.69
2018-08-20T17:17:13.435Z,51.99
2018-08-20T17:19:45.731Z,51.43
2018-08-20T17:22:16.425Z,51.60
2018-08-20T17:24:46.729Z,52.40
2018-08-20T17:27:21.253Z,52.19
2018-08-20T17:29:51.457Z,52.57
2018-08-20T17:32:23.277Z,52.79
2018-08-20T17:34:54.964Z,52.04
2018-08-20T17:37:25.226Z,52.20
2018-08-20T17:40:06.449Z,52.15
2018-08-20T17:42:38.967Z,52.16
2018-08-20T17:45:10.055Z,53.38
2018-08-20T17:47:41.223Z,52.22
2018-08-20T17:50:25.223Z,52.39
2018-08-20T17:52:55.236Z,53.18
2018-08-20T17:55:26.301Z,52.50
2018-08-20T17:57:55.720Z,52.73
2018-08-20T18:00:34.545Z,52.71
2018-08-20T18:03:05.783Z,52.66
2018-08-20T18:05:36.975Z,52.82
2018-08-20T18:08:10.915Z,53.60
2018-08-20T18:10:44.973Z,53.58
2018-08-20T18:13:25.869Z,53.87
2018-08-20T18:15:55.283Z,53.16
2018-08-20T18:21:25.807Z,53.74
2018-08-20T18:23:56.273Z,54.14
2018-08-20T18:26:31.064Z,54.45
2018-08-20T18:29:01.056Z,54.96
2018-08-20T18:31:31.025Z,55.12
2018-08-20T18:34:00.916Z,55.65
2018-08-20T18:36:32.243Z,54.56
2018-08-20T18:39:06.969Z,55.71
2018-08-20T18:42:14.111Z,55.04
2018-08-20T18:44:46.154Z,56.42
2018-08-20T18:47:18.774Z,56.24
2018-08-20T18:49:54.399Z,56.60
2018-08-20T18:52:26.861Z,56.44
2018-08-20T18:54:57.855Z,56.34
2018-08-20T18:57:33.814Z,56.51
2018-08-20T19:00:08.361Z,56.78
2018-08-20T19:02:49.876Z,55.89
2018-08-20T19:05:21.738Z,57.02
2018-08-20T19:07:52.834Z,57.35
2018-08-20T19:10:33.286Z,57.83
2018-08-20T19:13:05.849Z,57.19
2018-08-20T19:15:42.295Z,58.74
2018-08-20T19:18:17.265Z,58.76
2018-08-20T19:20:47.272Z,58.38
2018-08-20T19:23:17.479Z,59.28
2018-08-20T19:25:51.633Z,58.55
2018-08-20T19:28:25.207Z,58.69
2018-08-20T19:30:57.639Z,59.46
2018-08-20T19:33:30.875Z,59.50
2018-08-20T19:36:00.571Z,60.42
2018-08-20T19:38:30.914Z,60.51
2018-08-20T19:41:06.450Z,60.93
2018-08-20T19:43:40.850Z,60.85
2018-08-20T19:46:10.786Z,60.69
2018-08-20T19:48:42.451Z,60.73
2018-08-20T19:51:12.726Z,61.38
2018-08-20T19:53:44.279Z,62.04
2018-08-20T19:56:16.482Z,61.94
2018-08-20T19:58:49.131Z,61.23
2018-08-20T20:01:19.312Z,62.15
2018-08-20T20:03:50.767Z,62.62
2018-08-20T20:06:20.174Z,62.29
2018-08-20T20:08:49.594Z,62.39
2018-08-20T20:11:24.794Z,62.54
2018-08-20T20:14:02.322Z,62.59
2018-08-20T20:16:40.768Z,63.43
2018-08-20T20:19:11.531Z,63.41
2018-08-20T20:21:41.020Z,63.42
2018-08-20T20:24:11.798Z,62.87
2018-08-20T20:26:42.169Z,63.26
2018-08-20T20:29:12.391Z,63.34
2018-08-20T20:31:43.682Z,63.80
2018-08-20T20:34:15.940Z,63.39
2018-08-20T20:36:45.318Z,64.51
2018-08-20T20:39:15.755Z,64.00
2018-08-20T20:41:46.983Z,64.31
2018-08-20T20:44:19.331Z,63.87
2018-08-20T20:46:51.996Z,64.04
2018-08-20T20:49:21.412Z,65.24
2018-08-20T20:51:51.611Z,64.58
2018-08-20T20:54:24.716Z,65.39
2018-08-20T20:56:54.192Z,65.36
2018-08-20T20:59:23.585Z,65.35
2018-08-20T21:01:53.889Z,64.92
2018-08-20T21:04:24.230Z,66.13
2018-08-20T21:06:53.697Z,65.73
2018-08-20T21:09:23.965Z,66.76
2018-08-20T21:11:53.409Z,65.72
2018-08-20T21:14:25.522Z,66.26
2018-08-20T21:16:54.935Z,66.48
2018-08-20T21:19:25.510Z,65.67
2018-08-20T21:21:54.950Z,66.43
2018-08-20T21:24:27.366Z,67.11
2018-08-20T21:26:57.467Z,67.64
2018-08-20T21:29:32.580Z,66.93
2018-08-20T21:32:02.977Z,67.00
2018-08-20T21:34:37.309Z,66.68
2018-08-20T21:37:07.330Z,68.48
2018-08-20T21:39:38.146Z,68.27
2018-08-20T21:42:07.617Z,67.32
2018-08-20T21:44:38.368Z,67.58
2018-08-20T21:47:30.187Z,67.28
2018-08-20T21:50:00.545Z,67.52
2018-08-20T21:52:30.692Z,68.31
2018-08-20T21:55:00.059Z,69.44
2018-08-20T21:57:30.835Z,68.68
2018-08-20T22:00:21.469Z,68.71
2018-08-20T22:02:55.774Z,68.84
2018-08-20T22:05:25.607Z,69.60
2018-08-20T22:07:56.916Z,69.22
2018-08-20T22:10:30.143Z,69.32
2018-08-20T22:13:01.012Z,70.16
2018-08-20T22:15:32.393Z,69.66
2018-08-20T22:18:03.758Z,69.41
2018-08-20T22:20:33.494Z,70.03
2018-08-20T22:23:11.992Z,70.32
2018-08-20T22:25:32.721Z,69.82
2018-08-20T22:28:02.672Z,71.19
2018-08-20T22:30:37.864Z,70.42
2018-08-20T22:33:07.367Z,70.07
2018-08-20T22:35:38.134Z,70.88
2018-08-20T22:38:07.519Z,69.66
2018-08-20T22:40:36.916Z,70.78
2018-08-20T22:43:08.203Z,71.57
2018-08-20T22:45:38.146Z,71.87
2018-08-20T22:48:07.539Z,71.09
2018-08-20T22:50:38.825Z,71.85
2018-08-20T22:53:10.220Z,71.46
2018-08-20T22:55:45.271Z,71.13
2018-08-20T22:58:14.666Z,70.81
2018-08-20T23:00:44.455Z,71.24
2018-08-20T23:03:13.845Z,71.05
2018-08-20T23:05:49.207Z,70.91
2018-08-20T23:08:19.030Z,71.29
2018-08-20T23:10:48.978Z,71.36
2018-08-20T23:13:18.565Z,72.10
2018-08-20T23:15:47.978Z,72.10
2018-08-20T23:18:17.414Z,71.96
2018-08-20T23:20:48.374Z,71.50
2018-08-20T23:23:22.526Z,71.00
2018-08-20T23:25:56.073Z,72.19
2018-08-20T23:28:26.323Z,71.60
2018-08-20T23:31:00.100Z,72.22
2018-08-20T23:33:30.060Z,72.26
2018-08-20T23:36:00.531Z,72.28
2018-08-20T23:38:30.676Z,71.66
2018-08-20T23:41:00.362Z,71.61
2018-08-20T23:43:30.958Z,72.83
2018-08-20T23:46:00.407Z,72.03
2018-08-20T23:48:30.715Z,71.43
2018-08-20T23:51:07.295Z,72.35
2018-08-20T23:53:36.726Z,72.03
2018-08-20T23:56:06.141Z,71.17
2018-08-20T23:58:35.623Z,72.08
